Airfield :
LOGIN :

Register | Disclaimer

   EN    FR    IT 

 










Legend :    VFR   Marginal VFR   IFR   Intensive IFR   Very Intensive IFR
Visi :
Ceiling :
>= 8 km
>= 3000ft
5 to 8 km
1000 to 3000 ft
1500m to 5 km
500 to 1000 ft
800 to 1500m
200 to 500 ft
< 800m
< 200 ft
Symbols :   Thunderstorms  Fog  Heavy snow  Heavy precipitations  Wind > 20 kt
SIGMETs :     Misc.  Thunderstorms  Icing  Turbulence  Mountain Waves  Volcanic Ashes







- Airport Elevation : 741 ft
- IATA code : JKG


ESGJ - Jönköping

CURRENT METAR :
  • 210320Z AUTO 17010KT 9999 FEW047/// 14/14 Q1004

EXPIRED METARs :
  • 210250Z AUTO 18010KT 9000 BKN047/// 15/14 Q1004
  • 210220Z AUTO 18010KT 9999 SCT008/// BKN044/// OVC051/// 15/14 Q1005
  • 210150Z AUTO 18011KT 9999 BKN008/// BKN012/// 14/14 Q1005
  • 210120Z AUTO 19010KT 9999 SCT011/// BKN013/// 14/13 Q1006
  • 210050Z AUTO 20013KT 9999 BKN010/// BKN014/// OVC019/// 14/13 Q1006

TAF TAF ESGJ
Valid from the 21 at 04:00 until the 21 at 12:00 UTC


210330Z 2104/2112 18012KT CAVOK
BECMG 2108/2110 18018G32KT
No reported NOTAMs for that airfield.



MET'MAP, your aeronautical weather chart ! - Copyright ORBIFLY December 2007 - Disclaimer

ORBIFLY MET'MAP TEAM :

Programming & Development : Alexandra Zaïnal
Concept & Development : Baudouin d'Aumeries
Co-Development & Prog : Marc-Olivier Méhu
Technical & hardware support : Manuel Goepfert

Contact : metmap@orbifly.com




SOURCES & CREDITS :

   NOAA